createdAt,value
2022-09-06T00:01:17.838Z,63.56
2022-09-06T00:04:20.913Z,63.55
2022-09-06T00:07:23.567Z,63.46
2022-09-06T00:10:27.584Z,63.57
2022-09-06T00:13:30.213Z,63.91
2022-09-06T00:16:33.201Z,63.92
2022-09-06T00:19:35.851Z,63.93
2022-09-06T00:22:38.877Z,64.76
2022-09-06T00:25:41.881Z,65.21
2022-09-06T00:28:45.132Z,65.43
2022-09-06T00:31:47.648Z,65.45
2022-09-06T00:34:50.528Z,66.02
2022-09-06T00:37:57.926Z,65.97
2022-09-06T00:41:01.000Z,66.21
2022-09-06T00:44:03.952Z,66.86
2022-09-06T00:47:08.410Z,66.79
2022-09-06T00:50:12.649Z,66.99
2022-09-06T00:53:15.878Z,67.25
2022-09-06T00:56:18.639Z,66.97
2022-09-06T00:59:21.516Z,67.39
2022-09-06T01:02:24.294Z,67.71
2022-09-06T01:05:41.868Z,67.81
2022-09-06T01:09:00.083Z,68.45
2022-09-06T01:12:19.740Z,68.11
2022-09-06T01:15:37.670Z,68.30
2022-09-06T01:18:55.779Z,68.70
2022-09-06T01:22:33.796Z,68.42
2022-09-06T01:26:14.352Z,68.83
2022-09-06T01:29:23.825Z,68.71
2022-09-06T01:32:28.680Z,68.52
2022-09-06T01:35:36.157Z,69.39
2022-09-06T01:38:39.043Z,69.27
2022-09-06T01:41:41.551Z,69.57
2022-09-06T01:44:48.627Z,69.69
2022-09-06T01:47:55.004Z,69.71
2022-09-06T01:51:09.916Z,69.70
2022-09-06T01:54:33.898Z,69.59
2022-09-06T01:58:04.711Z,70.00
2022-09-06T02:01:31.038Z,69.72
2022-09-06T02:04:47.330Z,68.70
2022-09-06T02:07:53.038Z,68.01
2022-09-06T02:10:59.443Z,66.93
2022-09-06T02:14:06.545Z,65.93
2022-09-06T02:17:12.368Z,65.32
2022-09-06T02:20:21.303Z,64.20
2022-09-06T02:23:34.151Z,62.77
2022-09-06T02:26:38.943Z,60.91
2022-09-06T02:29:42.101Z,60.24
2022-09-06T02:32:57.801Z,60.00
2022-09-06T02:36:05.798Z,59.94
2022-09-06T02:39:08.939Z,60.34
2022-09-06T02:42:13.276Z,59.27
2022-09-06T02:45:15.866Z,59.83
2022-09-06T02:48:18.844Z,59.52
2022-09-06T02:51:21.384Z,59.62
2022-09-06T02:54:24.451Z,59.44
2022-09-06T02:57:27.092Z,59.79
2022-09-06T03:00:30.294Z,59.77
2022-09-06T03:03:32.801Z,59.56
2022-09-06T03:06:35.679Z,59.04
2022-09-06T03:09:38.263Z,58.78
2022-09-06T03:12:45.016Z,58.74
2022-09-06T03:15:58.839Z,59.13
2022-09-06T03:19:01.709Z,59.34
2022-09-06T03:22:04.269Z,59.59
2022-09-06T03:25:08.295Z,59.62
2022-09-06T03:28:11.103Z,59.46
2022-09-06T03:31:14.010Z,59.92
2022-09-06T03:34:16.573Z,60.18
2022-09-06T03:37:19.671Z,60.23
2022-09-06T03:40:22.431Z,60.65
2022-09-06T03:43:26.708Z,61.06
2022-09-06T03:46:30.825Z,61.01
2022-09-06T03:49:33.668Z,60.94
2022-09-06T03:52:36.387Z,61.30
2022-09-06T03:55:39.451Z,60.16
2022-09-06T03:58:42.093Z,59.80
2022-09-06T04:01:44.922Z,60.05
2022-09-06T04:04:47.909Z,60.41
2022-09-06T04:07:50.513Z,60.45
2022-09-06T04:10:54.972Z,59.77
2022-09-06T04:13:57.471Z,59.76
2022-09-06T04:17:00.433Z,60.00
2022-09-06T04:20:04.559Z,59.65
2022-09-06T04:23:07.768Z,59.70
2022-09-06T04:26:10.338Z,59.76
2022-09-06T04:29:13.187Z,59.15
2022-09-06T04:32:15.691Z,58.62
2022-09-06T04:35:18.527Z,58.82
2022-09-06T04:38:21.137Z,57.80
2022-09-06T04:41:24.016Z,57.16
2022-09-06T04:44:26.524Z,56.29
2022-09-06T04:47:29.402Z,56.16
2022-09-06T04:50:31.923Z,55.58
2022-09-06T04:53:40.608Z,55.61
2022-09-06T04:56:43.188Z,55.30
2022-09-06T04:59:46.015Z,55.20
2022-09-06T05:02:48.725Z,54.99
2022-09-06T05:05:51.537Z,54.84
2022-09-06T05:08:54.587Z,54.94
2022-09-06T05:11:57.895Z,54.27
2022-09-06T05:15:00.542Z,54.43
2022-09-06T05:18:04.733Z,54.33
2022-09-06T05:21:07.696Z,54.53
2022-09-06T05:24:10.640Z,53.95
2022-09-06T05:27:14.248Z,53.54
2022-09-06T05:30:18.470Z,53.15
2022-09-06T05:33:22.528Z,52.96
2022-09-06T05:36:30.191Z,53.06
2022-09-06T05:39:32.855Z,53.48
2022-09-06T05:42:35.941Z,52.59
2022-09-06T05:45:38.606Z,52.41
2022-09-06T05:48:42.119Z,52.01
2022-09-06T05:51:44.657Z,51.45
2022-09-06T05:54:47.457Z,51.17
2022-09-06T05:57:50.376Z,51.23
2022-09-06T06:00:53.786Z,51.03
2022-09-06T06:04:02.192Z,50.81
2022-09-06T06:07:04.920Z,50.85
2022-09-06T06:10:08.032Z,50.51
2022-09-06T06:13:10.668Z,50.52
2022-09-06T06:16:15.685Z,50.39
2022-09-06T06:19:18.509Z,50.17
2022-09-06T06:22:21.455Z,50.56
2022-09-06T06:25:26.293Z,49.64
2022-09-06T06:28:29.194Z,49.81
2022-09-06T06:31:33.153Z,50.35
2022-09-06T06:34:36.120Z,50.33
2022-09-06T06:37:38.720Z,49.97
2022-09-06T06:40:45.776Z,50.21
2022-09-06T06:43:48.367Z,49.62
2022-09-06T06:46:52.123Z,49.48
2022-09-06T06:49:54.943Z,49.18
2022-09-06T06:52:57.765Z,49.20
2022-09-06T06:56:00.311Z,48.99
2022-09-06T06:59:05.039Z,47.97
2022-09-06T07:02:07.749Z,48.92
2022-09-06T07:08:33.542Z,48.74
2022-09-06T07:11:36.362Z,47.96
2022-09-06T07:14:38.912Z,47.35
2022-09-06T07:17:41.841Z,48.03
2022-09-06T07:24:09.066Z,47.55
2022-09-06T07:30:37.378Z,47.26
2022-09-06T07:33:40.935Z,47.00
2022-09-06T07:36:44.205Z,46.54
2022-09-06T07:39:46.881Z,46.43
2022-09-06T07:42:49.982Z,46.08
2022-09-06T07:46:03.554Z,45.84
2022-09-06T07:49:07.267Z,46.14
2022-09-06T07:55:32.660Z,45.63
2022-09-06T07:58:35.403Z,44.72
2022-09-06T08:01:39.208Z,44.96
2022-09-06T08:04:42.640Z,44.96
2022-09-06T08:07:45.183Z,44.76
2022-09-06T08:10:51.196Z,44.04
2022-09-06T08:13:55.634Z,44.23
2022-09-06T08:16:58.513Z,42.90
2022-09-06T08:20:01.087Z,42.86
2022-09-06T08:23:10.307Z,42.31
2022-09-06T08:26:12.994Z,42.28
2022-09-06T08:29:15.842Z,42.23
2022-09-06T08:32:19.520Z,42.80
2022-09-06T08:35:22.624Z,42.38
2022-09-06T08:38:25.600Z,41.58
2022-09-06T08:41:36.341Z,41.56
2022-09-06T08:45:02.275Z,40.85
2022-09-06T08:48:06.084Z,40.64
2022-09-06T08:51:38.363Z,40.58
2022-09-06T08:54:56.130Z,41.06
2022-09-06T08:58:05.927Z,40.76
2022-09-06T09:01:19.897Z,40.61
2022-09-06T09:04:24.927Z,40.15
2022-09-06T09:08:12.240Z,40.13
2022-09-06T09:11:22.064Z,40.33
2022-09-06T09:14:28.215Z,40.89
2022-09-06T09:17:31.542Z,41.48
2022-09-06T09:20:38.319Z,40.78
2022-09-06T09:23:40.908Z,39.99
2022-09-06T09:27:02.729Z,40.75
2022-09-06T09:33:33.934Z,40.04
2022-09-06T09:36:36.683Z,39.91
2022-09-06T09:39:40.206Z,40.54
2022-09-06T09:42:43.002Z,39.36
2022-09-06T09:45:46.526Z,39.35
2022-09-06T09:49:22.836Z,40.03
2022-09-06T09:52:30.983Z,39.75
2022-09-06T09:55:33.617Z,39.72
2022-09-06T09:58:37.011Z,39.98
2022-09-06T10:01:39.591Z,39.87
2022-09-06T10:04:49.652Z,40.03
2022-09-06T10:07:56.279Z,40.43
2022-09-06T10:10:59.279Z,40.80
2022-09-06T10:14:30.576Z,40.51
2022-09-06T10:17:38.962Z,40.43
2022-09-06T10:20:45.969Z,40.64
2022-09-06T10:27:21.348Z,39.98
2022-09-06T10:30:24.686Z,40.47
2022-09-06T10:33:33.215Z,38.84
2022-09-06T10:36:38.259Z,38.70
2022-09-06T10:39:54.188Z,40.18
2022-09-06T10:42:59.255Z,38.73
2022-09-06T10:46:12.178Z,38.23
2022-09-06T10:49:18.855Z,38.48
2022-09-06T10:52:33.920Z,37.62
2022-09-06T10:55:40.182Z,37.68
2022-09-06T11:02:32.594Z,37.64
2022-09-06T11:05:38.705Z,37.71
2022-09-06T11:08:57.809Z,38.01
2022-09-06T11:12:11.079Z,38.09
2022-09-06T11:15:15.173Z,39.36
2022-09-06T11:18:22.827Z,38.74
2022-09-06T11:22:00.941Z,38.71
2022-09-06T11:25:22.887Z,37.92
2022-09-06T11:28:53.707Z,37.42
2022-09-06T11:35:28.635Z,37.85
2022-09-06T11:38:31.665Z,38.70
2022-09-06T11:41:40.380Z,38.16
2022-09-06T11:45:03.055Z,38.33
2022-09-06T11:48:24.576Z,38.65
2022-09-06T11:51:36.986Z,38.82
2022-09-06T11:54:45.061Z,38.98
2022-09-06T11:57:47.988Z,39.18
2022-09-06T12:01:13.181Z,40.16
2022-09-06T12:04:16.000Z,38.99
2022-09-06T12:07:18.569Z,40.13
2022-09-06T12:10:30.605Z,40.10
2022-09-06T12:13:47.712Z,40.82
2022-09-06T12:17:00.405Z,40.20
2022-09-06T12:20:07.997Z,41.11
2022-09-06T12:23:36.450Z,40.80
2022-09-06T12:26:55.688Z,40.10
2022-09-06T12:29:59.534Z,40.17
2022-09-06T12:33:06.695Z,40.33
2022-09-06T12:36:14.171Z,39.91
2022-09-06T12:39:17.466Z,39.26
2022-09-06T12:42:22.098Z,38.46
2022-09-06T12:45:27.544Z,38.24
2022-09-06T12:48:33.410Z,37.74
2022-09-06T12:51:38.229Z,37.92
2022-09-06T12:54:49.761Z,38.44
2022-09-06T12:57:57.828Z,37.16
2022-09-06T13:01:08.657Z,36.65
2022-09-06T13:04:16.408Z,38.65
2022-09-06T13:07:21.146Z,37.07
2022-09-06T13:10:26.392Z,36.59
2022-09-06T13:13:29.251Z,37.71
2022-09-06T13:16:38.107Z,37.77
2022-09-06T13:19:42.617Z,36.53
2022-09-06T13:22:47.569Z,36.80
2022-09-06T13:25:52.382Z,37.37
2022-09-06T13:28:54.880Z,35.90
2022-09-06T13:31:59.781Z,35.71
2022-09-06T13:35:02.995Z,34.85
2022-09-06T13:38:22.357Z,33.89
2022-09-06T13:41:25.595Z,35.17
2022-09-06T13:44:32.570Z,34.73
2022-09-06T13:47:35.031Z,34.08
2022-09-06T13:50:37.909Z,34.71
2022-09-06T13:53:41.228Z,35.46
2022-09-06T13:56:48.807Z,34.96
2022-09-06T13:59:51.293Z,35.12
2022-09-06T14:02:55.627Z,34.79
2022-09-06T14:06:00.339Z,35.08
2022-09-06T14:09:07.360Z,34.74
2022-09-06T14:12:11.117Z,35.40
2022-09-06T14:15:13.747Z,35.23
2022-09-06T14:18:17.443Z,35.60
2022-09-06T14:21:20.158Z,35.93
2022-09-06T14:24:23.400Z,36.43
2022-09-06T14:27:26.210Z,36.83
2022-09-06T14:30:29.165Z,36.79
2022-09-06T14:33:31.690Z,37.46
2022-09-06T14:36:34.630Z,37.86
2022-09-06T14:39:37.210Z,37.50
2022-09-06T14:42:40.128Z,37.89
2022-09-06T14:45:42.676Z,37.53
2022-09-06T14:48:46.345Z,38.48
2022-09-06T14:51:49.915Z,38.06
2022-09-06T14:54:52.874Z,38.89
2022-09-06T14:57:55.423Z,39.13
2022-09-06T15:01:13.839Z,39.11
2022-09-06T15:04:16.683Z,39.18
2022-09-06T15:07:19.982Z,39.67
2022-09-06T15:10:22.839Z,39.53
2022-09-06T15:13:27.006Z,39.25
2022-09-06T15:16:29.995Z,39.69
2022-09-06T15:19:35.284Z,39.41
2022-09-06T15:22:38.175Z,40.21
2022-09-06T15:25:51.257Z,40.73
2022-09-06T15:28:54.109Z,40.21
2022-09-06T15:31:57.221Z,40.55
2022-09-06T15:35:04.463Z,40.81
2022-09-06T15:38:07.699Z,41.56
2022-09-06T15:41:12.816Z,41.97
2022-09-06T15:44:17.904Z,41.71
2022-09-06T15:47:20.524Z,41.66
2022-09-06T15:50:47.567Z,41.63
2022-09-06T15:53:46.922Z,42.31
2022-09-06T15:56:49.766Z,44.49
2022-09-06T15:59:52.367Z,44.92
2022-09-06T16:02:57.185Z,44.58
2022-09-06T16:09:29.424Z,45.67
2022-09-06T16:12:32.365Z,46.17
2022-09-06T16:15:35.364Z,46.61
2022-09-06T16:18:41.590Z,48.11
2022-09-06T16:21:44.459Z,49.55
2022-09-06T16:24:47.350Z,49.04
2022-09-06T16:27:50.079Z,49.37
2022-09-06T16:30:53.077Z,51.34
2022-09-06T16:33:57.814Z,51.63
2022-09-06T16:37:00.703Z,51.74
2022-09-06T16:40:03.534Z,52.12
2022-09-06T16:43:06.392Z,53.07
2022-09-06T16:46:09.599Z,52.72
2022-09-06T16:49:12.785Z,52.87
2022-09-06T16:52:15.394Z,53.05
2022-09-06T16:55:18.349Z,52.76
2022-09-06T16:58:21.028Z,53.10
2022-09-06T17:01:25.749Z,53.48
2022-09-06T17:04:28.664Z,54.26
2022-09-06T17:07:31.689Z,54.97
2022-09-06T17:10:38.231Z,56.46
2022-09-06T17:13:42.761Z,55.90
2022-09-06T17:17:04.053Z,55.25
2022-09-06T17:20:07.654Z,55.12
2022-09-06T17:23:10.194Z,54.90
2022-09-06T17:26:13.782Z,55.06
2022-09-06T17:29:16.422Z,54.83
2022-09-06T17:32:19.284Z,54.86
2022-09-06T17:35:21.990Z,54.93
2022-09-06T17:38:24.944Z,54.66
2022-09-06T17:41:30.049Z,54.75
2022-09-06T17:44:33.277Z,54.88
2022-09-06T17:47:35.897Z,55.59
2022-09-06T17:50:40.117Z,55.58
2022-09-06T17:53:44.072Z,55.61
2022-09-06T17:56:47.082Z,56.52
2022-09-06T17:59:49.713Z,58.08
2022-09-06T18:02:53.069Z,58.13
2022-09-06T18:05:55.961Z,57.67
2022-09-06T18:09:04.167Z,58.05
2022-09-06T18:12:07.724Z,58.24
2022-09-06T18:15:10.695Z,58.53
2022-09-06T18:18:13.692Z,58.51
2022-09-06T18:21:16.682Z,58.79
2022-09-06T18:24:19.740Z,58.81
2022-09-06T18:27:22.356Z,60.37
2022-09-06T18:30:25.222Z,59.93
2022-09-06T18:33:28.000Z,61.14
2022-09-06T18:36:32.467Z,61.81
2022-09-06T18:39:35.310Z,61.63
2022-09-06T18:42:43.362Z,62.71
2022-09-06T18:45:46.771Z,63.45
2022-09-06T18:48:49.900Z,63.83
2022-09-06T18:51:52.471Z,64.95
2022-09-06T18:54:55.330Z,64.38
2022-09-06T18:57:58.191Z,65.41
2022-09-06T19:01:04.771Z,64.83
2022-09-06T19:04:07.733Z,64.87
2022-09-06T19:07:10.932Z,64.97
2022-09-06T19:10:16.331Z,65.21
2022-09-06T19:13:19.460Z,65.06
2022-09-06T19:16:23.421Z,65.50
2022-09-06T19:19:26.428Z,65.59
2022-09-06T19:22:29.525Z,65.75
2022-09-06T19:25:32.426Z,66.16
2022-09-06T19:28:35.884Z,66.27
2022-09-06T19:31:39.189Z,66.37
2022-09-06T19:34:45.263Z,66.44
2022-09-06T19:37:48.232Z,66.72
2022-09-06T19:40:51.978Z,67.20
2022-09-06T19:43:56.286Z,67.18
2022-09-06T19:47:00.157Z,67.35
2022-09-06T19:50:03.604Z,67.54
2022-09-06T19:53:07.376Z,67.36
2022-09-06T19:56:18.007Z,67.57
2022-09-06T19:59:20.593Z,67.72
2022-09-06T20:02:23.567Z,67.99
2022-09-06T20:05:27.028Z,67.94
2022-09-06T20:08:29.747Z,67.92
2022-09-06T20:11:34.104Z,67.91
2022-09-06T20:14:36.663Z,68.08
2022-09-06T20:17:39.591Z,68.61
2022-09-06T20:20:42.686Z,68.44
2022-09-06T20:23:53.508Z,68.61
2022-09-06T20:26:56.463Z,68.64
2022-09-06T20:29:59.341Z,69.32
2022-09-06T20:33:01.992Z,68.80
2022-09-06T20:36:09.691Z,68.78
2022-09-06T20:39:12.547Z,69.19
2022-09-06T20:42:15.548Z,69.27
2022-09-06T20:45:19.237Z,69.77
2022-09-06T20:48:22.292Z,69.61
2022-09-06T20:51:25.275Z,69.83
2022-09-06T20:54:28.141Z,70.21
2022-09-06T20:57:30.731Z,70.47
2022-09-06T21:00:33.786Z,70.57
2022-09-06T21:03:39.188Z,70.57
2022-09-06T21:06:42.389Z,70.66
2022-09-06T21:09:45.106Z,70.90
2022-09-06T21:12:47.991Z,71.23
2022-09-06T21:15:50.689Z,71.17
2022-09-06T21:19:02.999Z,70.98
2022-09-06T21:22:05.548Z,71.09
2022-09-06T21:25:08.907Z,71.10
2022-09-06T21:28:11.676Z,71.29
2022-09-06T21:31:22.276Z,71.14
2022-09-06T21:34:25.165Z,71.32
2022-09-06T21:37:28.059Z,71.21
2022-09-06T21:40:34.166Z,71.11
2022-09-06T21:43:37.055Z,71.73
2022-09-06T21:46:40.758Z,71.55
2022-09-06T21:49:43.831Z,71.64
2022-09-06T21:52:46.411Z,72.11
2022-09-06T21:55:49.812Z,72.17
2022-09-06T21:58:55.456Z,72.03
2022-09-06T22:01:58.817Z,71.72
2022-09-06T22:05:06.453Z,72.04
2022-09-06T22:08:09.011Z,72.57
2022-09-06T22:11:12.980Z,72.45
2022-09-06T22:14:15.679Z,72.71
2022-09-06T22:17:18.605Z,72.85
2022-09-06T22:20:23.029Z,73.03
2022-09-06T22:23:25.995Z,73.31
2022-09-06T22:26:30.278Z,73.67
2022-09-06T22:29:33.245Z,73.51
2022-09-06T22:32:37.063Z,73.49
2022-09-06T22:35:40.711Z,73.58
2022-09-06T22:38:43.291Z,73.98
2022-09-06T22:41:46.266Z,73.75
2022-09-06T22:44:48.931Z,74.09
2022-09-06T22:47:51.799Z,74.09
2022-09-06T22:50:54.399Z,74.38
2022-09-06T22:53:57.280Z,74.52
2022-09-06T22:57:00.393Z,74.57
2022-09-06T23:00:06.067Z,74.95
2022-09-06T23:03:08.765Z,74.73
2022-09-06T23:06:11.903Z,74.52
2022-09-06T23:09:14.592Z,74.44
2022-09-06T23:12:17.452Z,74.51
2022-09-06T23:15:20.173Z,74.50
2022-09-06T23:18:23.002Z,74.53
2022-09-06T23:21:26.622Z,74.84
2022-09-06T23:24:29.529Z,74.83
2022-09-06T23:27:32.088Z,74.87
2022-09-06T23:30:37.825Z,75.01
2022-09-06T23:33:41.836Z,75.27
2022-09-06T23:36:45.301Z,75.54
2022-09-06T23:39:48.230Z,75.35
2022-09-06T23:42:51.181Z,75.33
2022-09-06T23:45:53.759Z,76.25
2022-09-06T23:48:56.642Z,76.67
2022-09-06T23:51:59.349Z,77.63
2022-09-06T23:55:02.798Z,77.02
2022-09-06T23:58:05.587Z,76.78
